Time;durP1;ratioP1;P1;durP2;ratioP2;P2;SDS_P1;SDS_P2;PMS_P1;PMS_P2;Temp;Humidity;BMP_temperature;BMP_pressure;BME280_temperature;BME280_humidity;BME280_pressure;Samples;Min_cycle;Max_cycle;Signal;HPM_P1;HPM_P2
2022/12/03 00:00:57;;;;;;;35.65;27.40;;;26.50;99.90;;;;;;5056246;28;20025;-66
2022/12/03 00:03:24;;;;;;;38.55;29.73;;;26.60;99.90;;;;;;5056167;28;20082;-66
2022/12/03 00:05:50;;;;;;;48.85;28.40;;;26.50;99.90;;;;;;5055692;28;20091;-66
2022/12/03 00:08:17;;;;;;;50.97;29.40;;;26.50;99.90;;;;;;5056021;28;20036;-66
2022/12/03 00:10:43;;;;;;;51.67;29.83;;;26.40;99.90;;;;;;5055854;28;20024;-66
2022/12/03 00:13:10;;;;;;;48.38;28.70;;;26.40;99.90;;;;;;5055622;28;20067;-66
2022/12/03 00:15:37;;;;;;;49.47;34.83;;;26.40;99.90;;;;;;5055512;28;20063;-67
2022/12/03 00:18:03;;;;;;;57.85;44.88;;;26.30;99.90;;;;;;5055571;28;20029;-66
2022/12/03 00:20:30;;;;;;;95.78;78.13;;;26.40;99.90;;;;;;5053372;28;20029;-65
2022/12/03 00:22:56;;;;;;;80.53;66.22;;;26.40;99.90;;;;;;5044619;28;20060;-65
2022/12/03 00:25:23;;;;;;;153.55;136.80;;;26.40;99.90;;;;;;5035496;28;20030;-66
2022/12/03 00:27:49;;;;;;;130.75;110.53;;;26.30;99.90;;;;;;5035368;28;20030;-66
2022/12/03 00:30:16;;;;;;;129.48;108.70;;;26.30;99.90;;;;;;5035081;28;20018;-65
2022/12/03 00:32:42;;;;;;;101.88;87.57;;;26.40;99.90;;;;;;5035380;28;20041;-66
2022/12/03 00:35:09;;;;;;;64.00;50.80;;;26.50;99.90;;;;;;5035164;28;20508;-66
2022/12/03 00:37:36;;;;;;;56.70;41.60;;;26.70;99.90;;;;;;5035351;28;20028;-64
2022/12/03 00:40:05;;;;;;;51.47;36.28;;;26.70;99.90;;;;;;5035007;28;20072;-65
2022/12/03 00:42:31;;;;;;;49.28;36.00;;;26.80;99.90;;;;;;5035176;28;20022;-68
2022/12/03 00:44:58;;;;;;;45.22;33.97;;;26.80;99.90;;;;;;5035060;28;20052;-66
2022/12/03 00:47:24;;;;;;;46.72;35.15;;;26.80;99.90;;;;;;5035257;28;20025;-66
2022/12/03 00:49:51;;;;;;;53.70;36.42;;;26.90;99.90;;;;;;5035012;28;20032;-67
2022/12/03 00:52:18;;;;;;;195.23;126.70;;;26.90;99.90;;;;;;5034766;28;20092;-67
2022/12/03 00:54:44;;;;;;;220.93;148.63;;;26.90;99.90;;;;;;5034921;28;20025;-66
2022/12/03 00:57:11;;;;;;;138.50;97.05;;;26.90;99.90;;;;;;5034913;28;20022;-66
2022/12/03 00:59:37;;;;;;;97.55;67.28;;;26.90;99.90;;;;;;5034814;28;20120;-66
2022/12/03 01:02:07;;;;;;;101.15;76.80;;;27.00;99.90;;;;;;5033796;28;20021;-67
2022/12/03 01:04:33;;;;;;;62.92;46.70;;;27.00;99.90;;;;;;5034661;28;20102;-67
2022/12/03 01:07:00;;;;;;;59.22;39.17;;;27.10;99.90;;;;;;5035726;28;20021;-66
2022/12/03 01:09:26;;;;;;;56.80;41.17;;;27.10;99.90;;;;;;5043338;28;20033;-66
2022/12/03 01:11:53;;;;;;;64.65;42.13;;;27.10;99.90;;;;;;5053490;28;20025;-65
2022/12/03 01:14:20;;;;;;;60.22;40.22;;;27.10;99.90;;;;;;5052505;28;20045;-66
2022/12/03 01:16:47;;;;;;;57.13;39.75;;;27.10;99.90;;;;;;5054426;28;20104;-65
2022/12/03 01:19:18;;;;;;;339.92;218.63;;;27.20;99.90;;;;;;5054173;28;20075;-68
2022/12/03 01:21:47;;;;;;;128.50;88.20;;;27.20;99.90;;;;;;5046345;28;20031;-70
2022/12/03 01:24:13;;;;;;;68.35;46.72;;;27.30;99.90;;;;;;5034762;28;20129;-70
2022/12/03 01:26:40;;;;;;;56.15;35.60;;;27.50;99.90;;;;;;5043081;28;20293;-66
2022/12/03 01:29:07;;;;;;;45.47;31.58;;;27.50;99.90;;;;;;5044625;28;20036;-65
2022/12/03 01:34:02;;;;;;;46.55;31.67;;;27.60;99.90;;;;;;5045225;28;20355;-64
2022/12/03 01:36:29;;;;;;;43.20;29.50;;;27.60;99.90;;;;;;5044220;28;20021;-66
2022/12/03 01:38:55;;;;;;;41.15;27.67;;;27.60;99.90;;;;;;5042788;28;20071;-65
2022/12/03 01:41:23;;;;;;;43.75;26.02;;;27.70;99.90;;;;;;5044670;28;20016;-64
2022/12/03 01:43:53;;;;;;;41.00;23.52;;;27.80;99.90;;;;;;5045041;28;20448;-65
2022/12/03 01:46:22;;;;;;;30.10;21.08;;;27.90;99.90;;;;;;5042745;28;20025;-66
2022/12/03 01:48:51;;;;;;;31.48;20.95;;;27.90;99.90;;;;;;5043949;28;20021;-63
2022/12/03 01:51:18;;;;;;;36.53;23.48;;;28.00;99.90;;;;;;5045389;28;20470;-64
2022/12/03 01:53:45;;;;;;;41.17;24.83;;;28.00;99.90;;;;;;5043463;28;20030;-65
2022/12/03 01:56:16;;;;;;;30.98;23.30;;;28.10;99.90;;;;;;5045681;28;20061;-64
2022/12/03 01:58:44;;;;;;;32.22;24.80;;;28.10;99.90;;;;;;5042806;28;20525;-65
2022/12/03 02:01:14;;;;;;;38.53;25.83;;;28.20;99.90;;;;;;5043311;28;20025;-66
2022/12/03 02:03:41;;;;;;;32.85;23.35;;;28.30;99.90;;;;;;5044773;28;20025;-65
2022/12/03 02:06:17;;;;;;;33.35;22.85;;;28.40;99.90;;;;;;5043598;28;20466;-64
2022/12/03 02:08:44;;;;;;;31.52;22.83;;;28.50;99.90;;;;;;5042675;28;20383;-65
2022/12/03 02:11:13;;;;;;;32.30;19.92;;;28.60;99.90;;;;;;5042989;28;20021;-65
2022/12/03 02:13:40;;;;;;;26.70;17.38;;;28.70;99.90;;;;;;5044389;28;20381;-66
2022/12/03 02:16:07;;;;;;;27.30;18.83;;;28.80;99.90;;;;;;5043134;28;20037;-65
2022/12/03 02:18:34;;;;;;;27.45;17.83;;;28.80;99.90;;;;;;5042388;28;20025;-65
2022/12/03 02:21:11;;;;;;;25.85;17.05;;;28.80;99.90;;;;;;5042265;28;20044;-65
2022/12/03 02:23:42;;;;;;;24.73;16.17;;;28.90;99.90;;;;;;5042148;28;20018;-65
2022/12/03 02:26:09;;;;;;;21.83;15.67;;;28.90;99.90;;;;;;5042998;28;20021;-65
2022/12/03 02:28:37;;;;;;;30.58;17.35;;;28.80;99.90;;;;;;5044256;28;20103;-65
2022/12/03 02:31:04;;;;;;;28.95;16.20;;;29.00;99.90;;;;;;5044371;28;20495;-65
2022/12/03 02:33:31;;;;;;;22.17;17.23;;;29.10;99.90;;;;;;5043402;28;20107;-66
2022/12/03 02:35:57;;;;;;;23.48;16.55;;;29.10;99.90;;;;;;5042203;28;20025;-66
2022/12/03 02:41:01;;;;;;;27.95;17.40;;;29.10;99.90;;;;;;5044386;28;20026;-65
2022/12/03 02:43:28;;;;;;;22.60;16.02;;;29.30;99.90;;;;;;5043001;28;20496;-65
2022/12/03 02:45:57;;;;;;;27.77;18.40;;;29.40;99.90;;;;;;5042324;28;20028;-66
2022/12/03 02:48:27;;;;;;;25.77;20.65;;;29.40;99.90;;;;;;5043641;28;20018;-66
2022/12/03 02:50:58;;;;;;;28.70;19.77;;;29.40;99.90;;;;;;5043606;28;20025;-66
2022/12/03 02:53:30;;;;;;;51.53;33.55;;;29.60;99.90;;;;;;5042521;28;20597;-65
2022/12/03 02:55:58;;;;;;;;;;;29.80;99.90;;;;;;5039768;28;20083;-66
2022/12/03 02:58:26;;;;;;;35.97;26.40;;;29.80;99.90;;;;;;5038244;28;19909;-66
2022/12/03 03:00:54;;;;;;;35.53;23.00;;;29.80;99.90;;;;;;5043431;28;20477;-65
2022/12/03 03:03:23;;;;;;;39.22;25.05;;;29.90;99.90;;;;;;5041937;28;20025;-64
2022/12/03 03:05:51;;;;;;;20.58;14.82;;;29.90;99.90;;;;;;5042593;28;20025;-65
2022/12/03 03:08:18;;;;;;;18.85;13.50;;;29.90;99.90;;;;;;5043884;28;20052;-66
2022/12/03 03:10:46;;;;;;;20.08;13.23;;;29.80;99.90;;;;;;5042235;28;20126;-70
2022/12/03 03:13:20;;;;;;;23.73;14.80;;;29.90;99.90;;;;;;5042285;28;20032;-67
2022/12/03 03:15:47;;;;;;;15.50;11.57;;;30.10;99.90;;;;;;5042454;28;20041;-66
2022/12/03 03:18:14;;;;;;;24.75;12.43;;;30.00;99.90;;;;;;5041685;28;20036;-65
2022/12/03 03:20:41;;;;;;;44.33;30.73;;;30.10;99.90;;;;;;5040953;28;20104;-64
2022/12/03 03:23:10;;;;;;;19.92;13.20;;;30.20;99.90;;;;;;5042404;28;20029;-66
2022/12/03 03:25:39;;;;;;;15.38;10.95;;;30.10;99.90;;;;;;5043938;28;20025;-67
2022/12/03 03:28:06;;;;;;;16.27;9.63;;;30.10;99.90;;;;;;5046904;28;20053;-65
2022/12/03 03:30:34;;;;;;;13.35;9.07;;;30.00;99.90;;;;;;5044200;28;20380;-67
2022/12/03 03:33:01;;;;;;;19.45;12.98;;;30.00;99.90;;;;;;5044430;28;20025;-65
2022/12/03 03:35:28;;;;;;;14.90;10.40;;;30.00;99.90;;;;;;5044463;28;20021;-67
2022/12/03 03:37:55;;;;;;;15.23;9.15;;;30.00;99.90;;;;;;5045235;28;20032;-68
2022/12/03 03:40:22;;;;;;;16.15;9.20;;;29.90;99.90;;;;;;5045547;28;20017;-66
2022/12/03 03:42:49;;;;;;;16.00;11.10;;;29.90;99.90;;;;;;5045224;28;20423;-66
2022/12/03 03:45:15;;;;;;;15.15;8.60;;;29.90;99.90;;;;;;5044836;28;20051;-68
2022/12/03 03:47:42;;;;;;;13.05;8.98;;;29.90;99.90;;;;;;5044165;28;20055;-66
2022/12/03 03:50:11;;;;;;;11.07;7.80;;;30.00;99.90;;;;;;5044053;28;20021;-67
2022/12/03 03:52:39;;;;;;;10.85;7.72;;;30.20;99.90;;;;;;5044221;28;20390;-67
2022/12/03 03:55:07;;;;;;;15.98;9.00;;;30.20;99.90;;;;;;5043600;28;20029;-68
2022/12/03 03:57:33;;;;;;;13.75;6.45;;;30.20;99.90;;;;;;5046195;28;20482;-71
2022/12/03 04:00:00;;;;;;;9.07;4.82;;;30.20;99.90;;;;;;5044754;28;20080;-69
2022/12/03 04:02:27;;;;;;;9.93;6.28;;;30.30;99.90;;;;;;5045939;28;20021;-68
2022/12/03 04:04:54;;;;;;;14.20;7.43;;;30.30;99.90;;;;;;5046286;28;20022;-70
2022/12/03 04:07:20;;;;;;;15.23;8.23;;;30.30;99.90;;;;;;5044537;28;20469;-69
2022/12/03 04:09:47;;;;;;;15.07;7.28;;;30.40;99.90;;;;;;5039953;28;20048;-69
2022/12/03 04:14:42;;;;;;;25.15;11.45;;;30.50;99.90;;;;;;5045099;28;20029;-66
2022/12/03 04:17:09;;;;;;;31.05;17.33;;;30.60;99.90;;;;;;5043998;28;20060;-69
2022/12/03 04:19:35;;;;;;;17.58;10.38;;;30.70;99.90;;;;;;5047824;28;20021;-66
2022/12/03 04:24:31;;;;;;;7.30;5.32;;;30.80;99.90;;;;;;5041749;28;20120;-67
2022/12/03 04:29:26;;;;;;;18.02;6.53;;;30.60;99.90;;;;;;5035645;28;20029;-68
2022/12/03 04:36:52;;;;;;;15.35;8.32;;;30.70;99.90;;;;;;5035422;28;20470;-67
2022/12/03 04:39:19;;;;;;;10.27;5.63;;;30.80;99.90;;;;;;5041792;28;20128;-66
2022/12/03 04:41:45;;;;;;;10.10;5.18;;;30.80;99.90;;;;;;5043123;28;20052;-65
2022/12/03 04:46:41;;;;;;;10.88;6.65;;;30.80;99.90;;;;;;5043500;28;20092;-68
2022/12/03 04:49:11;;;;;;;7.90;4.75;;;30.80;99.90;;;;;;5044440;28;20027;-66
2022/12/03 04:51:37;;;;;;;10.55;6.00;;;30.80;99.90;;;;;;5046093;28;20032;-66
2022/12/03 04:54:03;;;;;;;11.77;6.45;;;30.90;99.90;;;;;;5043492;28;20025;-66
2022/12/03 04:56:30;;;;;;;7.45;5.47;;;30.90;99.90;;;;;;5044067;28;20029;-68
2022/12/03 05:01:26;;;;;;;8.90;5.93;;;30.90;99.90;;;;;;5043335;28;20100;-69
2022/12/03 05:03:52;;;;;;;18.40;10.57;;;30.90;99.90;;;;;;5043889;28;20075;-70
2022/12/03 05:06:19;;;;;;;19.63;10.60;;;30.90;99.90;;;;;;5043294;28;20025;-69
2022/12/03 05:08:45;;;;;;;20.67;11.63;;;31.00;99.90;;;;;;5042006;28;20013;-71
2022/12/03 05:11:12;;;;;;;23.52;16.98;;;31.10;99.90;;;;;;5044393;28;20028;-69
2022/12/03 05:13:38;;;;;;;22.52;14.90;;;31.20;99.90;;;;;;5044370;28;20436;-67
2022/12/03 05:16:05;;;;;;;24.10;8.55;;;31.30;99.90;;;;;;5042801;28;20082;-68
2022/12/03 05:18:32;;;;;;;24.10;15.70;;;31.30;99.90;;;;;;5043947;28;20119;-66
2022/12/03 05:20:58;;;;;;;17.95;9.50;;;31.30;99.90;;;;;;5044522;28;20443;-66
2022/12/03 05:23:25;;;;;;;19.90;11.82;;;31.20;99.90;;;;;;5044169;28;20147;-65
2022/12/03 05:25:51;;;;;;;13.68;8.57;;;31.20;99.90;;;;;;5043861;28;20018;-68
2022/12/03 05:28:20;;;;;;;12.40;7.93;;;31.20;99.90;;;;;;5042505;28;20051;-68
2022/12/03 05:30:47;;;;;;;11.55;7.35;;;31.30;99.90;;;;;;5044212;28;20104;-67
2022/12/03 05:33:14;;;;;;;13.65;7.72;;;31.40;99.90;;;;;;5044104;28;20076;-67
2022/12/03 05:35:43;;;;;;;11.10;8.68;;;31.40;99.90;;;;;;5042261;28;20036;-65
2022/12/03 05:38:09;;;;;;;13.70;7.78;;;31.50;99.90;;;;;;5044940;28;20025;-65
2022/12/03 05:40:36;;;;;;;17.08;7.45;;;31.50;99.90;;;;;;5054109;28;20055;-69
2022/12/03 05:43:03;;;;;;;12.18;6.10;;;31.50;99.90;;;;;;5054786;28;20496;-68
2022/12/03 05:45:33;;;;;;;13.80;8.10;;;31.60;99.90;;;;;;5054548;28;20440;-67
2022/12/03 05:48:00;;;;;;;8.18;5.93;;;31.70;99.90;;;;;;5054131;28;20365;-67
2022/12/03 05:50:30;;;;;;;11.25;6.03;;;31.70;99.90;;;;;;5046127;28;20044;-68
2022/12/03 05:52:57;;;;;;;15.15;5.95;;;31.80;99.90;;;;;;5042220;28;20474;-66
2022/12/03 05:55:24;;;;;;;11.38;5.68;;;32.00;99.90;;;;;;5040197;28;20056;-69
2022/12/03 05:57:51;;;;;;;8.52;4.85;;;32.00;99.90;;;;;;5037354;28;20032;-68
2022/12/03 06:00:23;;;;;;;8.57;4.90;;;32.00;99.90;;;;;;5047021;28;20061;-65
2022/12/03 06:02:49;;;;;;;;;;;32.10;99.90;;;;;;5051267;28;20536;-68
2022/12/03 06:05:18;;;;;;;8.32;4.90;;;32.00;99.90;;;;;;5054502;28;19905;-68
2022/12/03 06:07:45;;;;;;;7.32;4.18;;;32.10;99.90;;;;;;5054396;28;20052;-70
2022/12/03 06:10:14;;;;;;;7.90;4.13;;;32.00;99.90;;;;;;5053728;28;20370;-65
2022/12/03 06:12:41;;;;;;;8.20;4.20;;;32.10;99.90;;;;;;5053940;28;20052;-67
2022/12/03 06:15:09;;;;;;;10.80;5.50;;;32.10;99.90;;;;;;5053570;28;20374;-69
2022/12/03 06:17:36;;;;;;;8.52;4.75;;;32.20;99.90;;;;;;5053418;28;20500;-66
2022/12/03 06:20:03;;;;;;;7.80;5.00;;;32.20;99.90;;;;;;5053408;28;20103;-66
2022/12/03 06:22:30;;;;;;;11.55;5.65;;;32.20;99.90;;;;;;5046949;28;20358;-66
2022/12/03 06:24:56;;;;;;;16.13;6.38;;;32.30;99.90;;;;;;5039181;28;20017;-66
2022/12/03 06:27:23;;;;;;;8.40;5.18;;;32.40;99.90;;;;;;5038839;28;20135;-64
2022/12/03 06:29:49;;;;;;;10.25;5.65;;;32.30;99.90;;;;;;5047966;28;20120;-66
2022/12/03 06:32:16;;;;;;;8.23;5.25;;;32.20;99.90;;;;;;5053530;28;20036;-69
2022/12/03 06:34:42;;;;;;;16.25;10.38;;;32.20;99.90;;;;;;5053371;28;20025;-69
2022/12/03 06:37:09;;;;;;;11.35;6.05;;;32.20;99.90;;;;;;5053119;28;20029;-68
2022/12/03 06:39:35;;;;;;;12.27;6.63;;;32.30;99.90;;;;;;5053108;28;20047;-69
2022/12/03 06:42:05;;;;;;;10.77;7.13;;;32.40;99.90;;;;;;5053238;28;20060;-69
2022/12/03 06:44:31;;;;;;;18.17;8.55;;;32.70;99.90;;;;;;5053086;28;20370;-69
2022/12/03 06:46:57;;;;;;;15.57;7.30;;;32.80;99.90;;;;;;5053314;28;20040;-69
2022/12/03 06:49:24;;;;;;;8.93;5.40;;;32.80;99.90;;;;;;5053239;28;20108;-66
2022/12/03 06:51:50;;;;;;;18.00;7.65;;;32.80;99.90;;;;;;5040096;28;20037;-65
2022/12/03 06:54:17;;;;;;;15.43;7.13;;;32.80;99.90;;;;;;5041408;28;20020;-68
2022/12/03 06:56:44;;;;;;;12.43;7.53;;;32.70;99.90;;;;;;5042393;28;20480;-68
2022/12/03 06:59:11;;;;;;;16.65;6.57;;;32.70;99.90;;;;;;5043045;28;20041;-68
2022/12/03 07:01:37;;;;;;;14.05;7.70;;;32.70;99.90;;;;;;5044482;28;20029;-67
2022/12/03 07:04:04;;;;;;;15.43;6.45;;;32.70;99.90;;;;;;5046795;28;20075;-69
2022/12/03 07:06:30;;;;;;;15.93;5.97;;;32.70;99.90;;;;;;5053050;28;20030;-71
2022/12/03 07:08:57;;;;;;;12.57;5.82;;;32.70;99.90;;;;;;5046271;28;20028;-65
2022/12/03 07:13:52;;;;;;;94.30;59.33;;;32.60;99.90;;;;;;5045106;28;20024;-66
2022/12/03 07:16:19;;;;;;;37.80;21.15;;;32.50;99.90;;;;;;5052333;28;20028;-68
2022/12/03 07:18:45;;;;;;;38.20;27.77;;;32.60;99.90;;;;;;5054867;28;20020;-67
2022/12/03 07:21:12;;;;;;;27.23;14.98;;;32.70;99.90;;;;;;5038811;28;20061;-64
2022/12/03 07:23:39;;;;;;;20.65;12.32;;;32.90;99.90;;;;;;5040516;28;20410;-69
2022/12/03 07:26:05;;;;;;;30.20;15.52;;;33.00;99.90;;;;;;5037702;28;20052;-67
2022/12/03 07:28:32;;;;;;;22.35;10.68;;;33.00;99.90;;;;;;5036673;28;20425;-69
2022/12/03 07:30:58;;;;;;;13.30;7.68;;;33.10;99.90;;;;;;5037584;28;20111;-66
2022/12/03 07:33:24;;;;;;;19.88;7.88;;;33.10;99.90;;;;;;5036443;28;20466;-66
2022/12/03 07:35:51;;;;;;;13.20;6.15;;;33.10;99.90;;;;;;5044701;28;20478;-68
2022/12/03 07:38:17;;;;;;;27.35;18.77;;;33.10;99.90;;;;;;5044826;28;20041;-67
2022/12/03 07:40:44;;;;;;;19.77;13.00;;;33.10;99.90;;;;;;5044993;28;20013;-67
2022/12/03 07:43:10;;;;;;;9.30;5.53;;;33.20;99.90;;;;;;5056243;28;20048;-66
2022/12/03 07:45:37;;;;;;;15.30;4.85;;;33.10;98.80;;;;;;5046651;28;20389;-66
2022/12/03 07:48:03;;;;;;;23.90;10.02;;;33.00;99.00;;;;;;5047600;28;20442;-67
2022/12/03 07:50:30;;;;;;;12.27;6.80;;;33.10;99.30;;;;;;5076181;28;20023;-68
2022/12/03 07:52:56;;;;;;;9.55;6.28;;;33.10;99.90;;;;;;5068178;28;20457;-67
2022/12/03 07:55:24;;;;;;;16.13;8.93;;;33.20;99.90;;;;;;5034814;28;20397;-67
2022/12/03 07:57:50;;;;;;;12.27;6.43;;;33.30;99.90;;;;;;5055049;28;20033;-66
2022/12/03 08:00:18;;;;;;;11.63;5.97;;;33.30;99.30;;;;;;5044864;28;20113;-66
2022/12/03 08:02:45;;;;;;;15.15;7.15;;;33.20;99.50;;;;;;5039681;28;20025;-65
2022/12/03 08:05:12;;;;;;;25.60;12.25;;;33.30;99.30;;;;;;5043854;28;20017;-66
2022/12/03 08:07:38;;;;;;;23.70;9.98;;;33.30;98.40;;;;;;5043680;28;20025;-64
2022/12/03 08:10:06;;;;;;;42.25;21.55;;;33.30;98.60;;;;;;5039503;28;20082;-67
2022/12/03 08:15:09;;;;;;;37.30;19.35;;;33.20;98.80;;;;;;5035723;28;20029;-66
2022/12/03 08:17:38;;;;;;;45.72;23.52;;;33.20;99.10;;;;;;5035661;28;20159;-67
2022/12/03 08:20:32;;;;;;;35.08;18.38;;;33.30;98.90;;;;;;5035522;28;20034;-66
2022/12/03 08:22:58;;;;;;;18.85;10.48;;;33.30;99.00;;;;;;5035604;28;20482;-67
2022/12/03 08:25:26;;;;;;;15.85;7.57;;;33.30;99.00;;;;;;5035598;28;20104;-67
2022/12/03 08:27:59;;;;;;;14.52;7.13;;;33.40;99.10;;;;;;5035239;28;20056;-67
2022/12/03 08:30:26;;;;;;;18.95;7.82;;;33.40;99.40;;;;;;5035521;28;20025;-66
2022/12/03 08:32:53;;;;;;;13.07;7.20;;;33.40;99.90;;;;;;5035352;28;20025;-65
2022/12/03 08:35:22;;;;;;;8.75;6.05;;;33.50;99.30;;;;;;5035379;28;20665;-66
2022/12/03 08:38:00;;;;;;;9.70;6.45;;;33.40;98.30;;;;;;5035062;28;20076;-65
2022/12/03 08:40:34;;;;;;;12.80;6.40;;;33.40;99.10;;;;;;5035040;28;20033;-66
2022/12/03 08:43:00;;;;;;;12.63;6.45;;;33.40;98.60;;;;;;5035471;28;20099;-66
2022/12/03 08:45:30;;;;;;;15.45;6.97;;;33.40;98.90;;;;;;5035172;28;20020;-66
2022/12/03 08:47:59;;;;;;;18.55;7.53;;;33.40;98.60;;;;;;5034868;28;20029;-66
2022/12/03 08:50:30;;;;;;;14.68;6.63;;;33.40;98.10;;;;;;5035158;28;20025;-67
2022/12/03 08:53:19;;;;;;;14.00;7.63;;;33.30;97.70;;;;;;5034932;28;20017;-67
2022/12/03 08:55:50;;;;;;;19.67;8.30;;;33.20;97.20;;;;;;5029905;28;20386;-66
2022/12/03 08:58:20;;;;;;;10.55;7.07;;;33.10;96.60;;;;;;5034655;28;20025;-66
2022/12/03 09:00:47;;;;;;;16.13;10.35;;;33.10;96.90;;;;;;5034814;28;20021;-65
2022/12/03 09:03:18;;;;;;;12.45;7.40;;;32.90;96.90;;;;;;5034824;28;20139;-65
2022/12/03 09:05:44;;;;;;;14.90;9.30;;;32.90;96.20;;;;;;5034900;28;20025;-67
2022/12/03 09:08:11;;;;;;;14.05;7.68;;;32.90;97.10;;;;;;5034749;28;20593;-67
2022/12/03 09:10:37;;;;;;;9.55;6.43;;;32.90;96.70;;;;;;5034663;28;20022;-67
2022/12/03 09:13:04;;;;;;;12.05;6.30;;;32.90;96.00;;;;;;5034933;28;20076;-66
2022/12/03 09:15:30;;;;;;;17.90;9.40;;;32.80;96.00;;;;;;5034579;28;20079;-66
2022/12/03 09:17:57;;;;;;;16.73;10.55;;;32.90;96.20;;;;;;5034467;28;20030;-66
2022/12/03 09:20:24;;;;;;;13.75;8.73;;;32.90;96.00;;;;;;5034235;28;20022;-66
2022/12/03 09:22:51;;;;;;;13.02;9.20;;;32.90;96.10;;;;;;5033715;28;20030;-66
2022/12/03 09:25:17;;;;;;;18.25;11.70;;;32.90;96.30;;;;;;5034439;28;20021;-66
2022/12/03 09:27:44;;;;;;;22.67;11.48;;;32.80;95.70;;;;;;5034139;28;20060;-66
2022/12/03 09:30:13;;;;;;;19.80;10.98;;;32.80;95.50;;;;;;5035431;28;20032;-66
2022/12/03 09:32:39;;;;;;;18.25;9.95;;;32.70;95.70;;;;;;5044420;28;20099;-66
2022/12/03 09:35:07;;;;;;;15.43;9.77;;;32.70;95.30;;;;;;5034614;28;20017;-66
2022/12/03 09:37:33;;;;;;;19.13;12.02;;;32.70;95.40;;;;;;5034041;28;20053;-65
2022/12/03 09:40:00;;;;;;;30.98;17.45;;;32.70;95.80;;;;;;5033830;28;20049;-66
2022/12/03 09:42:26;;;;;;;35.00;21.50;;;32.80;96.10;;;;;;5033945;28;20025;-66
2022/12/03 09:44:53;;;;;;;29.90;19.13;;;32.70;97.40;;;;;;5034266;28;20048;-65
2022/12/03 09:47:21;;;;;;;30.90;19.70;;;32.60;98.70;;;;;;5033913;28;20117;-64
2022/12/03 09:49:48;;;;;;;31.27;19.75;;;32.60;99.10;;;;;;5033777;28;20026;-65
2022/12/03 09:52:25;;;;;;;35.65;19.92;;;32.50;99.20;;;;;;5033985;28;20036;-65
2022/12/03 09:54:52;;;;;;;36.78;21.98;;;32.50;99.10;;;;;;5033865;28;20025;-66
2022/12/03 09:57:19;;;;;;;42.08;21.58;;;32.40;99.90;;;;;;5033700;28;20026;-65
2022/12/03 09:59:45;;;;;;;45.25;22.65;;;32.30;99.20;;;;;;5041953;28;20156;-66
2022/12/03 10:02:24;;;;;;;44.15;23.38;;;32.20;99.70;;;;;;5053022;28;20028;-65
2022/12/03 10:04:51;;;;;;;47.00;23.85;;;32.20;99.50;;;;;;5044071;28;20477;-70
2022/12/03 10:07:18;;;;;;;43.53;24.27;;;32.30;99.90;;;;;;5049113;28;20021;-70
2022/12/03 10:09:44;;;;;;;50.85;25.38;;;32.30;99.90;;;;;;5053405;28;20377;-69
2022/12/03 10:12:13;;;;;;;51.35;24.88;;;32.20;99.90;;;;;;5053446;28;20043;-70
2022/12/03 10:14:41;;;;;;;41.03;23.05;;;32.40;99.90;;;;;;5053406;28;20033;-68
2022/12/03 10:17:10;;;;;;;45.30;23.75;;;32.40;99.90;;;;;;5053247;28;20104;-67
2022/12/03 10:19:41;;;;;;;43.22;24.98;;;32.30;99.30;;;;;;5053283;28;20031;-67
2022/12/03 10:22:08;;;;;;;49.35;28.95;;;32.00;99.40;;;;;;5053349;28;20075;-67
2022/12/03 10:24:35;;;;;;;33.28;21.38;;;32.00;99.30;;;;;;5053165;28;20024;-67
2022/12/03 10:27:23;;;;;;;34.42;21.08;;;31.90;98.90;;;;;;5053185;28;20492;-67
2022/12/03 10:29:54;;;;;;;40.60;23.33;;;31.80;99.10;;;;;;5052318;28;20441;-67
2022/12/03 10:35:33;;;;;;;43.63;26.20;;;31.90;99.90;;;;;;5032942;28;20489;-67
2022/12/03 10:38:04;;;;;;;47.45;27.75;;;31.90;99.90;;;;;;5028080;28;20038;-67
2022/12/03 10:40:35;;;;;;;39.75;26.48;;;31.90;99.00;;;;;;5033052;28;20022;-67
2022/12/03 10:43:07;;;;;;;49.78;26.92;;;31.90;99.90;;;;;;5033094;28;20030;-67
2022/12/03 10:45:33;;;;;;;43.72;26.60;;;31.90;98.80;;;;;;5032991;28;20084;-67
2022/12/03 10:50:34;;;;;;;130.82;82.90;;;31.90;99.30;;;;;;5033121;28;20018;-67
2022/12/03 10:53:01;;;;;;;89.15;55.08;;;32.00;99.90;;;;;;5032802;28;20532;-65
2022/12/03 10:55:39;;;;;;;60.97;39.40;;;32.00;99.60;;;;;;5032916;28;20072;-67
2022/12/03 10:58:14;;;;;;;61.20;34.50;;;31.90;99.70;;;;;;5032941;28;20021;-67
2022/12/03 11:00:41;;;;;;;64.82;36.60;;;31.80;98.40;;;;;;5032937;28;20759;-65
2022/12/03 11:03:18;;;;;;;67.38;38.05;;;31.70;98.30;;;;;;5033025;28;20029;-66
2022/12/03 11:05:44;;;;;;;64.93;40.17;;;31.60;98.80;;;;;;5032849;28;20021;-67
2022/12/03 11:08:22;;;;;;;62.67;35.22;;;31.70;98.00;;;;;;5033030;28;20033;-67
2022/12/03 11:10:54;;;;;;;56.47;32.38;;;31.60;98.30;;;;;;5032781;28;20040;-67
2022/12/03 11:13:23;;;;;;;;;;;31.60;97.70;;;;;;5033061;28;20037;-66
2022/12/03 11:15:50;;;;;;;49.72;31.00;;;31.60;97.80;;;;;;5032882;28;19905;-66
2022/12/03 11:18:21;;;;;;;59.92;34.22;;;31.70;99.30;;;;;;5040135;28;20033;-67
2022/12/03 11:20:48;;;;;;;76.25;37.03;;;31.70;99.30;;;;;;5052766;28;20386;-66
2022/12/03 11:23:34;;;;;;;67.45;35.38;;;31.80;99.80;;;;;;5052715;28;20025;-66
2022/12/03 11:26:03;;;;;;;59.03;34.40;;;31.80;98.80;;;;;;5052612;28;20024;-66
2022/12/03 11:28:33;;;;;;;57.38;32.50;;;31.70;98.30;;;;;;5052608;28;20362;-67
2022/12/03 11:31:10;;;;;;;56.25;34.50;;;31.60;97.90;;;;;;5052282;28;20044;-66
2022/12/03 11:33:39;;;;;;;67.78;38.58;;;31.40;97.70;;;;;;5052516;28;20021;-67
2022/12/03 11:36:05;;;;;;;59.08;35.55;;;31.30;97.80;;;;;;5052354;28;20079;-66
2022/12/03 11:38:37;;;;;;;68.88;37.08;;;31.30;98.20;;;;;;5052373;28;20561;-65
2022/12/03 11:41:06;;;;;;;63.53;36.77;;;31.20;98.00;;;;;;5052493;28;20032;-66
2022/12/03 11:43:38;;;;;;;58.65;35.63;;;31.10;98.30;;;;;;5052253;28;20017;-66
2022/12/03 11:46:09;;;;;;;59.47;35.90;;;31.00;98.70;;;;;;5053251;28;20059;-65
2022/12/03 11:48:44;;;;;;;56.38;31.42;;;31.00;99.40;;;;;;5056128;28;20112;-66
2022/12/03 11:51:15;;;;;;;39.53;24.98;;;31.00;99.90;;;;;;5056165;28;20436;-65
2022/12/03 11:53:42;;;;;;;44.40;23.23;;;31.00;99.90;;;;;;5056061;28;20032;-64
2022/12/03 11:56:17;;;;;;;49.22;21.60;;;31.00;99.90;;;;;;5055850;28;20037;-64
2022/12/03 11:58:45;;;;;;;35.80;20.23;;;31.00;99.90;;;;;;5055443;28;20500;-64
2022/12/03 12:01:14;;;;;;;47.45;21.27;;;31.00;99.90;;;;;;5055806;28;20100;-63
2022/12/03 12:03:47;;;;;;;41.85;23.35;;;30.90;99.90;;;;;;5054908;28;20082;-65
2022/12/03 12:06:16;;;;;;;48.55;29.00;;;31.10;99.90;;;;;;5055917;28;20059;-66
2022/12/03 12:09:02;;;;;;;48.65;25.77;;;31.10;99.90;;;;;;5055006;28;20367;-65
2022/12/03 12:11:32;;;;;;;41.35;24.33;;;31.10;99.90;;;;;;5035873;28;20445;-67
2022/12/03 12:14:05;;;;;;;37.80;25.08;;;31.10;99.90;;;;;;5051960;28;20029;-65
2022/12/03 12:19:12;;;;;;;36.45;22.45;;;31.20;99.90;;;;;;5055436;28;20405;-68
2022/12/03 12:21:41;;;;;;;27.40;17.00;;;31.00;99.90;;;;;;5055163;28;20036;-67
2022/12/03 12:24:12;;;;;;;25.65;13.70;;;30.90;99.90;;;;;;5055591;28;20014;-67
2022/12/03 12:26:50;;;;;;;17.63;11.18;;;30.70;99.90;;;;;;5055310;28;20385;-68
2022/12/03 12:29:16;;;;;;;21.77;10.35;;;30.60;99.90;;;;;;5053076;28;20064;-69
2022/12/03 12:31:43;;;;;;;18.30;10.05;;;30.50;99.90;;;;;;5043400;28;20043;-66
2022/12/03 12:34:12;;;;;;;77.45;53.05;;;30.50;99.90;;;;;;5055140;28;20032;-66
2022/12/03 12:36:39;;;;;;;36.45;22.30;;;30.50;99.90;;;;;;5054954;28;20104;-67
2022/12/03 12:39:12;;;;;;;32.42;19.48;;;30.40;99.90;;;;;;5045741;28;20160;-69
2022/12/03 12:41:46;;;;;;;85.63;61.17;;;30.30;99.90;;;;;;5053375;28;20080;-70
2022/12/03 12:44:13;;;;;;;36.30;21.52;;;30.30;99.90;;;;;;5049225;28;20083;-67
2022/12/03 12:46:42;;;;;;;20.58;6.75;;;30.10;99.90;;;;;;5050861;28;20408;-68
2022/12/03 12:49:12;;;;;;;11.50;4.05;;;29.80;99.90;;;;;;5045907;28;20124;-67
2022/12/03 12:51:43;;;;;;;8.27;3.90;;;29.40;99.90;;;;;;5046638;28;20032;-67
2022/12/03 12:54:12;;;;;;;8.23;4.00;;;29.10;99.90;;;;;;5049446;28;20067;-68
2022/12/03 12:56:41;;;;;;;10.50;3.65;;;28.80;99.90;;;;;;5039725;28;20412;-67
2022/12/03 12:59:13;;;;;;;21.48;7.18;;;28.40;99.90;;;;;;5044539;28;20079;-67
2022/12/03 13:01:40;;;;;;;17.20;5.25;;;28.10;99.90;;;;;;5050332;28;20030;-68
2022/12/03 13:04:11;;;;;;;15.00;4.78;;;27.90;99.90;;;;;;5044714;28;20056;-68
2022/12/03 13:06:38;;;;;;;12.10;3.63;;;27.70;99.90;;;;;;5045013;28;20021;-68
2022/12/03 13:09:11;;;;;;;10.80;4.30;;;27.50;99.90;;;;;;5040185;28;20315;-66
2022/12/03 13:11:44;;;;;;;15.02;4.10;;;27.30;99.90;;;;;;5048623;28;20064;-65